createdAt,value
2023-02-14T00:00:26.866Z,2.20
2023-02-14T00:02:53.635Z,2.20
2023-02-14T00:05:20.303Z,2.20
2023-02-14T00:07:47.098Z,2.20
2023-02-14T00:10:13.839Z,2.30
2023-02-14T00:12:40.543Z,2.30
2023-02-14T00:15:22.596Z,2.30
2023-02-14T00:17:54.765Z,2.30
2023-02-14T00:20:23.227Z,2.30
2023-02-14T00:22:50.203Z,2.20
2023-02-14T00:25:18.219Z,2.30
2023-02-14T00:27:45.131Z,2.30
2023-02-14T00:30:13.163Z,2.20
2023-02-14T00:32:40.619Z,2.20
2023-02-14T00:35:09.109Z,2.20
2023-02-14T00:37:35.896Z,2.20
2023-02-14T00:40:02.635Z,2.30
2023-02-14T00:42:29.392Z,2.30
2023-02-14T00:44:56.099Z,2.30
2023-02-14T00:47:22.801Z,2.20
2023-02-14T00:49:49.473Z,2.20
2023-02-14T00:52:16.476Z,2.20
2023-02-14T00:54:43.257Z,2.10
2023-02-14T00:57:10.001Z,2.10
2023-02-14T00:59:37.017Z,2.10
2023-02-14T01:02:03.785Z,2.00
2023-02-14T01:04:30.547Z,2.00
2023-02-14T01:06:57.270Z,1.90
2023-02-14T01:09:24.017Z,1.90
2023-02-14T01:11:50.849Z,1.90
2023-02-14T01:14:17.588Z,1.90
2023-02-14T01:16:44.345Z,1.90
2023-02-14T01:19:11.244Z,1.80
2023-02-14T01:21:38.103Z,1.90
2023-02-14T01:24:07.560Z,2.00
2023-02-14T01:26:35.318Z,2.00
2023-02-14T01:29:03.557Z,1.90
2023-02-14T01:31:32.747Z,2.00
2023-02-14T01:34:00.168Z,1.90
2023-02-14T01:36:33.011Z,1.90
2023-02-14T01:39:03.951Z,1.90
2023-02-14T01:41:33.708Z,1.90
2023-02-14T01:44:02.064Z,2.00
2023-02-14T01:46:32.863Z,2.00
2023-02-14T01:49:09.086Z,2.00
2023-02-14T01:51:38.356Z,2.00
2023-02-14T01:54:07.364Z,2.00
2023-02-14T01:56:46.660Z,1.90
2023-02-14T01:59:16.446Z,1.90
2023-02-14T02:01:43.565Z,1.90
2023-02-14T02:04:19.298Z,1.90
2023-02-14T02:06:50.024Z,1.80
2023-02-14T02:09:33.094Z,1.80
2023-02-14T02:12:00.718Z,1.90
2023-02-14T02:14:29.409Z,1.90
2023-02-14T02:17:04.318Z,1.90
2023-02-14T02:19:51.543Z,1.80
2023-02-14T02:22:49.281Z,1.80
2023-02-14T02:25:37.046Z,1.80
2023-02-14T02:28:03.754Z,1.60
2023-02-14T02:31:07.313Z,1.70
2023-02-14T02:34:04.853Z,1.70
2023-02-14T02:36:46.437Z,1.80
2023-02-14T02:39:35.880Z,1.70
2023-02-14T02:42:12.454Z,1.40
2023-02-14T02:45:10.575Z,1.50
2023-02-14T02:47:57.250Z,1.60
2023-02-14T02:50:51.754Z,1.50
2023-02-14T02:53:28.344Z,1.50
2023-02-14T02:56:32.828Z,1.60
2023-02-14T02:59:18.238Z,1.40
2023-02-14T03:02:05.532Z,1.10
2023-02-14T03:04:53.027Z,1.20
2023-02-14T03:07:36.390Z,1.50
2023-02-14T03:10:25.339Z,1.50
2023-02-14T03:13:13.776Z,1.50
2023-02-14T03:16:22.192Z,1.50
2023-02-14T03:19:17.166Z,1.40
2023-02-14T03:22:02.203Z,1.60
2023-02-14T03:24:44.177Z,1.50
2023-02-14T03:27:25.517Z,1.30
2023-02-14T03:30:10.252Z,1.30
2023-02-14T03:32:49.918Z,1.20
2023-02-14T03:35:28.573Z,1.30
2023-02-14T03:38:12.219Z,1.40
2023-02-14T03:40:58.738Z,1.40
2023-02-14T03:43:30.794Z,1.60
2023-02-14T03:46:09.421Z,1.50
2023-02-14T03:48:39.312Z,1.40
2023-02-14T03:51:09.070Z,1.50
2023-02-14T03:53:38.739Z,1.20
2023-02-14T03:56:21.196Z,1.10
2023-02-14T03:58:53.609Z,0.90
2023-02-14T04:01:28.154Z,1.10
2023-02-14T04:03:59.513Z,1.20
2023-02-14T04:06:26.506Z,1.10
2023-02-14T04:08:53.171Z,1.00
2023-02-14T04:11:20.218Z,1.00
2023-02-14T04:13:46.881Z,1.20
2023-02-14T04:16:13.586Z,1.30
2023-02-14T04:18:58.807Z,1.00
2023-02-14T04:21:25.593Z,0.90
2023-02-14T04:23:52.219Z,0.70
2023-02-14T04:26:18.914Z,0.80
2023-02-14T04:28:45.623Z,0.80
2023-02-14T04:31:12.412Z,0.70
2023-02-14T04:33:39.350Z,0.70
2023-02-14T04:36:06.435Z,0.60
2023-02-14T04:38:33.407Z,0.50
2023-02-14T04:41:00.412Z,0.60
2023-02-14T04:43:27.291Z,0.70
2023-02-14T04:45:54.005Z,0.70
2023-02-14T04:48:20.698Z,0.80
2023-02-14T04:50:54.724Z,0.60
2023-02-14T04:53:22.253Z,0.50
2023-02-14T04:55:51.090Z,0.50
2023-02-14T04:58:18.033Z,0.40
2023-02-14T05:00:45.086Z,0.30
2023-02-14T05:03:11.865Z,0.50
2023-02-14T05:05:38.538Z,0.50
2023-02-14T05:08:05.220Z,0.40
2023-02-14T05:10:32.003Z,0.40
2023-02-14T05:12:58.674Z,0.50
2023-02-14T05:15:25.340Z,0.40
2023-02-14T05:17:52.051Z,0.50
2023-02-14T05:20:18.828Z,0.60
2023-02-14T05:22:45.520Z,0.60
2023-02-14T05:25:12.177Z,0.60
2023-02-14T05:27:38.859Z,1.00
2023-02-14T05:30:06.238Z,0.80
2023-02-14T05:32:32.987Z,0.70
2023-02-14T05:35:01.130Z,0.80
2023-02-14T05:37:28.063Z,0.70
2023-02-14T05:39:54.733Z,0.70
2023-02-14T05:42:21.490Z,0.60
2023-02-14T05:44:48.749Z,0.60
2023-02-14T05:47:15.582Z,0.50
2023-02-14T05:49:42.290Z,0.50
2023-02-14T05:52:09.042Z,0.60
2023-02-14T05:54:36.008Z,0.60
2023-02-14T05:57:02.765Z,0.40
2023-02-14T05:59:29.425Z,0.50
2023-02-14T06:01:56.100Z,0.60
2023-02-14T06:04:22.760Z,0.30
2023-02-14T06:06:49.471Z,0.30
2023-02-14T06:09:16.381Z,0.30
2023-02-14T06:11:43.057Z,0.20
2023-02-14T06:14:09.703Z,0.20
2023-02-14T06:16:36.666Z,0.30
2023-02-14T06:19:03.382Z,0.40
2023-02-14T06:21:30.062Z,0.40
2023-02-14T06:23:56.893Z,0.20
2023-02-14T06:26:27.811Z,0.10
2023-02-14T06:28:55.410Z,0.10
2023-02-14T06:31:22.620Z,0.20
2023-02-14T06:33:49.362Z,0.10
2023-02-14T06:36:16.522Z,0.20
2023-02-14T06:38:43.298Z,0.20
2023-02-14T06:41:11.383Z,0.20
2023-02-14T06:43:38.335Z,0.00
2023-02-14T06:46:05.263Z,0.00
2023-02-14T06:48:32.259Z,0.30
2023-02-14T06:50:59.252Z,0.30
2023-02-14T06:53:26.099Z,0.20
2023-02-14T06:55:52.896Z,0.20
2023-02-14T06:58:19.636Z,0.20
2023-02-14T07:00:47.144Z,0.20
2023-02-14T07:03:14.359Z,0.20
2023-02-14T07:05:41.201Z,0.10
2023-02-14T07:08:08.184Z,0.20
2023-02-14T07:10:35.337Z,0.40
2023-02-14T07:13:02.257Z,0.10
2023-02-14T07:15:29.012Z,0.10
2023-02-14T07:17:56.140Z,0.20
2023-02-14T07:20:22.816Z,0.20
2023-02-14T07:22:49.502Z,0.20
2023-02-14T07:25:16.199Z,0.40
2023-02-14T07:27:43.649Z,0.40
2023-02-14T07:30:11.483Z,0.30
2023-02-14T07:32:39.091Z,0.30
2023-02-14T07:35:06.228Z,0.40
2023-02-14T07:37:34.259Z,0.40
2023-02-14T07:40:01.268Z,0.40
2023-02-14T07:42:28.143Z,0.30
2023-02-14T07:44:54.962Z,0.40
2023-02-14T07:47:21.636Z,0.40
2023-02-14T07:49:48.319Z,0.40
2023-02-14T07:52:15.020Z,0.40
2023-02-14T07:54:41.890Z,0.50
2023-02-14T07:57:08.683Z,0.50
2023-02-14T07:59:35.349Z,0.60
2023-02-14T08:02:02.039Z,0.60
2023-02-14T08:04:28.808Z,0.50
2023-02-14T08:06:55.444Z,0.50
2023-02-14T08:09:27.091Z,0.50
2023-02-14T08:12:14.935Z,0.40
2023-02-14T08:14:42.720Z,0.40
2023-02-14T08:17:13.437Z,0.40
2023-02-14T08:19:40.587Z,0.50
2023-02-14T08:22:07.649Z,0.60
2023-02-14T08:24:34.328Z,0.60
2023-02-14T08:27:00.988Z,0.50
2023-02-14T08:29:27.668Z,0.60
2023-02-14T08:31:54.589Z,0.80
2023-02-14T08:34:21.305Z,0.80
2023-02-14T08:36:47.986Z,1.00
2023-02-14T08:39:15.243Z,1.20
2023-02-14T08:41:42.006Z,1.20
2023-02-14T08:44:08.691Z,1.20
2023-02-14T08:46:36.286Z,0.90
2023-02-14T08:49:03.022Z,0.80
2023-02-14T08:51:29.736Z,0.70
2023-02-14T08:53:56.556Z,0.80
2023-02-14T08:56:23.677Z,0.70
2023-02-14T08:58:54.809Z,0.70
2023-02-14T09:01:21.649Z,0.60
2023-02-14T09:03:48.380Z,0.60
2023-02-14T09:06:17.275Z,0.60
2023-02-14T09:08:44.758Z,0.60
2023-02-14T09:11:14.492Z,0.60
2023-02-14T09:13:42.742Z,0.70
2023-02-14T09:16:11.034Z,0.80
2023-02-14T09:18:38.392Z,0.80
2023-02-14T09:21:16.782Z,0.80
2023-02-14T09:23:43.698Z,0.90
2023-02-14T09:26:12.792Z,1.00
2023-02-14T09:28:40.531Z,1.00
2023-02-14T09:31:14.620Z,1.00
2023-02-14T09:33:42.055Z,1.00
2023-02-14T09:36:11.936Z,0.70
2023-02-14T09:38:38.908Z,0.80
2023-02-14T09:41:10.173Z,1.00
2023-02-14T09:43:44.861Z,0.80
2023-02-14T09:46:17.186Z,0.70
2023-02-14T09:48:47.620Z,0.60
2023-02-14T09:51:20.222Z,0.60
2023-02-14T09:53:51.771Z,0.60
2023-02-14T09:56:51.323Z,0.80
2023-02-14T09:59:30.981Z,1.10
2023-02-14T10:02:22.650Z,1.00
2023-02-14T10:05:06.378Z,1.20
2023-02-14T10:07:48.600Z,1.10
2023-02-14T10:10:24.119Z,1.30
2023-02-14T10:13:14.133Z,1.50
2023-02-14T10:15:47.770Z,1.40
2023-02-14T10:18:17.727Z,1.20
2023-02-14T10:21:15.659Z,1.30
2023-02-14T10:23:50.529Z,1.20
2023-02-14T10:26:39.944Z,1.10
2023-02-14T10:29:13.301Z,0.90
2023-02-14T10:32:03.174Z,1.00
2023-02-14T10:34:48.049Z,1.20
2023-02-14T10:37:38.420Z,1.30
2023-02-14T10:40:04.996Z,1.30
2023-02-14T10:42:53.225Z,1.40
2023-02-14T10:45:22.953Z,1.40
2023-02-14T10:48:14.194Z,1.30
2023-02-14T10:51:02.320Z,1.50
2023-02-14T10:53:40.808Z,1.40
2023-02-14T10:56:23.097Z,1.40
2023-02-14T10:58:52.387Z,1.20
2023-02-14T11:01:19.441Z,1.50
2023-02-14T11:04:03.688Z,1.40
2023-02-14T11:06:31.157Z,1.50
2023-02-14T11:08:58.477Z,1.50
2023-02-14T11:12:03.578Z,1.70
2023-02-14T11:14:34.145Z,1.60
2023-02-14T11:17:19.990Z,1.50
2023-02-14T11:19:56.989Z,1.60
2023-02-14T11:22:31.311Z,1.40
2023-02-14T11:25:19.316Z,1.70
2023-02-14T11:27:50.153Z,1.80
2023-02-14T11:30:27.995Z,1.80
2023-02-14T11:32:57.489Z,1.50
2023-02-14T11:35:30.404Z,1.50
2023-02-14T11:37:58.099Z,1.60
2023-02-14T11:40:36.639Z,1.60
2023-02-14T11:43:15.306Z,1.70
2023-02-14T11:45:44.654Z,2.00
2023-02-14T11:48:37.371Z,2.00
2023-02-14T11:51:09.279Z,1.90
2023-02-14T11:53:43.854Z,1.70
2023-02-14T11:56:10.801Z,1.50
2023-02-14T11:58:45.745Z,1.60
2023-02-14T12:01:22.029Z,1.70
2023-02-14T12:03:49.911Z,1.50
2023-02-14T12:06:28.811Z,1.60
2023-02-14T12:09:13.689Z,1.40
2023-02-14T12:11:40.469Z,1.60
2023-02-14T12:14:21.952Z,1.40
2023-02-14T12:17:02.855Z,1.50
2023-02-14T12:20:13.116Z,1.50
2023-02-14T12:22:56.954Z,1.50
2023-02-14T12:25:27.236Z,1.50
2023-02-14T12:28:12.535Z,1.70
2023-02-14T12:30:39.272Z,1.90
2023-02-14T12:33:20.755Z,2.00
2023-02-14T12:36:01.103Z,2.00
2023-02-14T12:38:57.208Z,2.00
2023-02-14T12:42:03.642Z,2.00
2023-02-14T12:44:45.441Z,2.40
2023-02-14T12:47:20.906Z,2.30
2023-02-14T12:50:00.780Z,2.20
2023-02-14T12:52:50.229Z,2.20
2023-02-14T12:55:29.606Z,1.90
2023-02-14T12:58:28.029Z,2.00
2023-02-14T13:01:28.844Z,2.20
2023-02-14T13:04:27.074Z,1.80
2023-02-14T13:07:09.461Z,1.90
2023-02-14T13:09:56.577Z,2.10
2023-02-14T13:12:57.455Z,2.30
2023-02-14T13:15:56.576Z,2.30
2023-02-14T13:18:29.044Z,2.20
2023-02-14T13:21:04.055Z,2.00
2023-02-14T13:23:36.193Z,2.20
2023-02-14T13:26:09.475Z,2.20
2023-02-14T13:28:38.454Z,2.30
2023-02-14T13:31:05.885Z,2.10
2023-02-14T13:33:44.290Z,2.20
2023-02-14T13:36:13.386Z,2.10
2023-02-14T13:38:51.332Z,2.00
2023-02-14T13:41:19.869Z,2.00
2023-02-14T13:44:02.460Z,2.00
2023-02-14T13:46:32.284Z,2.00
2023-02-14T13:49:03.435Z,1.70
2023-02-14T13:51:51.024Z,1.80
2023-02-14T13:54:28.171Z,1.80
2023-02-14T13:56:55.211Z,1.80
2023-02-14T13:59:35.487Z,1.80
2023-02-14T14:02:30.090Z,1.90
2023-02-14T14:04:57.114Z,2.10
2023-02-14T14:07:30.025Z,2.20
2023-02-14T14:09:59.346Z,2.00
2023-02-14T14:12:29.150Z,1.90
2023-02-14T14:15:05.126Z,2.00
2023-02-14T14:17:34.748Z,2.00
2023-02-14T14:20:04.695Z,2.30
2023-02-14T14:22:31.594Z,2.30
2023-02-14T14:25:01.723Z,2.50
2023-02-14T14:27:40.770Z,2.20
2023-02-14T14:30:19.407Z,1.90
2023-02-14T14:32:46.534Z,1.70
2023-02-14T14:35:13.204Z,1.70
2023-02-14T14:37:58.439Z,1.80
2023-02-14T14:40:29.589Z,2.10
2023-02-14T14:43:01.687Z,2.10
2023-02-14T14:45:31.372Z,2.00
2023-02-14T14:48:00.439Z,2.10
2023-02-14T14:50:30.980Z,2.00
2023-02-14T14:53:04.677Z,2.00
2023-02-14T14:55:35.358Z,2.20
2023-02-14T14:58:05.561Z,2.40
2023-02-14T15:00:34.780Z,2.30
2023-02-14T15:03:10.534Z,2.40
2023-02-14T15:05:40.393Z,2.40
2023-02-14T15:08:22.976Z,2.40
2023-02-14T15:10:56.173Z,2.20
2023-02-14T15:13:50.911Z,2.30
2023-02-14T15:16:22.426Z,2.10
2023-02-14T15:18:51.119Z,2.30
2023-02-14T15:21:18.175Z,2.20
2023-02-14T15:23:45.844Z,2.20
2023-02-14T15:26:29.796Z,2.30
2023-02-14T15:29:01.755Z,2.20
2023-02-14T15:31:31.631Z,2.20
2023-02-14T15:34:01.265Z,2.20
2023-02-14T15:36:28.458Z,2.20
2023-02-14T15:38:56.780Z,2.10
2023-02-14T15:41:26.798Z,2.30
2023-02-14T15:43:56.447Z,2.10
2023-02-14T15:46:35.992Z,2.20
2023-02-14T15:49:10.591Z,2.40
2023-02-14T15:51:38.501Z,2.40
2023-02-14T15:54:27.573Z,2.20
2023-02-14T15:56:56.651Z,2.30
2023-02-14T15:59:29.627Z,2.10
2023-02-14T16:02:37.677Z,2.30
2023-02-14T16:05:22.227Z,2.20
2023-02-14T16:08:05.761Z,2.20
2023-02-14T16:10:39.266Z,2.40
2023-02-14T16:13:15.158Z,2.10
2023-02-14T16:16:04.272Z,2.00
2023-02-14T16:18:37.882Z,1.90
2023-02-14T16:21:18.834Z,1.80
2023-02-14T16:23:47.784Z,1.90
2023-02-14T16:26:14.990Z,1.90
2023-02-14T16:28:43.372Z,1.70
2023-02-14T16:31:15.311Z,1.80
2023-02-14T16:33:42.240Z,1.90
2023-02-14T16:36:26.486Z,1.90
2023-02-14T16:38:53.842Z,1.80
2023-02-14T16:41:24.090Z,1.70
2023-02-14T16:43:51.123Z,1.70
2023-02-14T16:46:26.537Z,1.60
2023-02-14T16:48:53.430Z,1.60
2023-02-14T16:51:23.155Z,1.70
2023-02-14T16:53:50.503Z,1.50
2023-02-14T16:56:33.384Z,1.50
2023-02-14T16:59:00.151Z,1.70
2023-02-14T17:01:27.713Z,1.50
2023-02-14T17:03:54.484Z,1.50
2023-02-14T17:06:27.396Z,1.50
2023-02-14T17:08:55.778Z,1.20
2023-02-14T17:11:25.028Z,1.30
2023-02-14T17:13:52.882Z,1.30
2023-02-14T17:16:20.213Z,1.20
2023-02-14T17:18:50.310Z,1.30
2023-02-14T17:21:22.033Z,1.50
2023-02-14T17:23:48.982Z,1.40
2023-02-14T17:26:17.875Z,1.50
2023-02-14T17:28:46.458Z,1.30
2023-02-14T17:31:13.804Z,1.30
2023-02-14T17:33:40.687Z,1.40
2023-02-14T17:36:12.500Z,1.40
2023-02-14T17:38:40.727Z,1.20
2023-02-14T17:41:19.102Z,1.30
2023-02-14T17:43:46.393Z,1.40
2023-02-14T17:46:16.247Z,1.30
2023-02-14T17:48:45.530Z,1.30
2023-02-14T17:51:13.634Z,1.20
2023-02-14T17:53:43.323Z,1.30
2023-02-14T17:56:18.065Z,1.40
2023-02-14T17:58:47.644Z,1.30
2023-02-14T18:01:15.828Z,1.30
2023-02-14T18:03:42.694Z,1.20
2023-02-14T18:06:11.373Z,1.10
2023-02-14T18:08:41.275Z,1.00
2023-02-14T18:11:10.289Z,0.90
2023-02-14T18:13:37.544Z,0.80
2023-02-14T18:16:06.464Z,0.80
2023-02-14T18:18:33.497Z,0.80
2023-02-14T18:21:02.354Z,1.00
2023-02-14T18:23:30.758Z,0.90
2023-02-14T18:26:01.078Z,1.00
2023-02-14T18:28:28.358Z,1.20
2023-02-14T18:30:57.856Z,1.10
2023-02-14T18:33:25.669Z,1.10
2023-02-14T18:35:52.546Z,1.10
2023-02-14T18:38:19.710Z,1.10
2023-02-14T18:40:46.800Z,1.30
2023-02-14T18:43:13.708Z,1.20
2023-02-14T18:45:40.871Z,1.10
2023-02-14T18:48:09.054Z,1.00
2023-02-14T18:50:35.782Z,1.10
2023-02-14T18:53:02.524Z,1.10
2023-02-14T18:55:29.621Z,0.90
2023-02-14T18:57:56.439Z,1.00
2023-02-14T19:00:23.500Z,1.00
2023-02-14T19:02:50.240Z,1.00
2023-02-14T19:05:17.176Z,1.00
2023-02-14T19:07:44.563Z,1.00
2023-02-14T19:10:11.340Z,1.30
2023-02-14T19:12:38.071Z,1.30
2023-02-14T19:15:06.002Z,1.30
2023-02-14T19:17:32.948Z,1.20
2023-02-14T19:19:59.913Z,1.00
2023-02-14T19:22:26.669Z,1.00
2023-02-14T19:24:53.912Z,0.90
2023-02-14T19:27:22.398Z,1.00
2023-02-14T19:29:49.423Z,0.90
2023-02-14T19:32:16.272Z,0.90
2023-02-14T19:34:42.902Z,0.90
2023-02-14T19:37:09.613Z,0.90
2023-02-14T19:39:36.354Z,0.80
2023-02-14T19:42:05.244Z,0.80
2023-02-14T19:44:32.548Z,0.80
2023-02-14T19:47:19.295Z,0.80
2023-02-14T19:49:51.061Z,0.80
2023-02-14T19:52:26.397Z,0.90
2023-02-14T19:54:55.417Z,0.90
2023-02-14T19:57:22.170Z,0.90
2023-02-14T19:59:49.015Z,1.00
2023-02-14T20:02:18.871Z,1.20
2023-02-14T20:04:45.785Z,1.20
2023-02-14T20:07:13.048Z,0.90
2023-02-14T20:09:39.763Z,0.90
2023-02-14T20:12:06.956Z,0.90
2023-02-14T20:14:49.835Z,1.00
2023-02-14T20:17:17.960Z,0.70
2023-02-14T20:19:44.867Z,0.80
2023-02-14T20:22:11.900Z,0.80
2023-02-14T20:24:38.609Z,0.90
2023-02-14T20:27:05.353Z,0.90
2023-02-14T20:29:32.315Z,0.90
2023-02-14T20:32:00.092Z,1.00
2023-02-14T20:34:27.274Z,1.00
2023-02-14T20:36:55.578Z,1.00
2023-02-14T20:39:26.955Z,1.00
2023-02-14T20:41:54.206Z,0.90
2023-02-14T20:44:21.685Z,1.00
2023-02-14T20:46:51.486Z,1.00
2023-02-14T20:49:19.030Z,1.00
2023-02-14T20:51:46.553Z,1.00
2023-02-14T20:54:13.439Z,1.00
2023-02-14T20:56:40.326Z,1.00
2023-02-14T20:59:09.390Z,1.00
2023-02-14T21:01:36.445Z,1.20
2023-02-14T21:04:03.222Z,1.10
2023-02-14T21:06:32.758Z,1.10
2023-02-14T21:09:00.433Z,1.20
2023-02-14T21:11:27.943Z,1.20
2023-02-14T21:13:59.246Z,1.00
2023-02-14T21:16:27.771Z,1.10
2023-02-14T21:18:59.142Z,1.10
2023-02-14T21:21:32.193Z,0.90
2023-02-14T21:24:00.384Z,0.80
2023-02-14T21:26:28.025Z,0.90
2023-02-14T21:28:55.011Z,1.00
2023-02-14T21:31:23.343Z,0.90
2023-02-14T21:33:51.837Z,1.10
2023-02-14T21:36:20.400Z,0.90
2023-02-14T21:38:47.672Z,1.00
2023-02-14T21:41:17.662Z,1.10
2023-02-14T21:43:46.337Z,1.00
2023-02-14T21:46:16.356Z,0.90
2023-02-14T21:49:02.185Z,1.10
2023-02-14T21:51:29.589Z,1.20
2023-02-14T21:53:57.162Z,0.90
2023-02-14T21:56:24.013Z,1.00
2023-02-14T21:58:52.976Z,1.00
2023-02-14T22:01:26.466Z,1.10
2023-02-14T22:03:54.299Z,1.20
2023-02-14T22:06:21.913Z,1.20
2023-02-14T22:08:56.066Z,1.10
2023-02-14T22:11:24.407Z,1.00
2023-02-14T22:13:51.109Z,1.00
2023-02-14T22:16:19.970Z,0.90
2023-02-14T22:18:47.887Z,1.00
2023-02-14T22:21:18.244Z,0.90
2023-02-14T22:23:45.414Z,0.90
2023-02-14T22:26:17.436Z,0.60
2023-02-14T22:28:46.411Z,0.60
2023-02-14T22:31:14.269Z,0.70
2023-02-14T22:33:41.172Z,0.80
2023-02-14T22:36:09.037Z,0.80
2023-02-14T22:38:36.462Z,1.00
2023-02-14T22:41:20.800Z,1.00
2023-02-14T22:43:48.104Z,0.90
2023-02-14T22:46:20.013Z,1.00
2023-02-14T22:48:48.380Z,1.00
2023-02-14T22:51:32.931Z,0.70
2023-02-14T22:54:02.405Z,0.60
2023-02-14T22:56:31.465Z,0.50
2023-02-14T22:59:00.774Z,0.60
2023-02-14T23:01:28.474Z,0.80
2023-02-14T23:03:57.043Z,0.80
2023-02-14T23:06:24.809Z,0.70
2023-02-14T23:08:52.252Z,0.60
2023-02-14T23:11:24.544Z,0.70
2023-02-14T23:14:10.147Z,0.80
2023-02-14T23:16:55.607Z,0.80
2023-02-14T23:19:44.118Z,1.00
2023-02-14T23:22:13.890Z,1.10
2023-02-14T23:24:40.692Z,1.20
2023-02-14T23:27:08.576Z,1.30
2023-02-14T23:29:36.981Z,1.30
2023-02-14T23:32:05.101Z,1.30
2023-02-14T23:34:34.583Z,1.30
2023-02-14T23:37:01.882Z,1.40
2023-02-14T23:39:28.835Z,1.40
2023-02-14T23:41:55.786Z,1.30
2023-02-14T23:44:25.502Z,1.40
2023-02-14T23:46:55.130Z,1.40
2023-02-14T23:49:22.967Z,1.40
2023-02-14T23:51:51.507Z,1.30
2023-02-14T23:54:19.158Z,1.40
2023-02-14T23:56:46.032Z,1.20
2023-02-14T23:59:14.461Z,1.10
